createdAt,value
2023-01-20T00:00:49.712Z,10.60
2023-01-20T00:01:49.652Z,11.40
2023-01-20T00:02:49.647Z,11.00
2023-01-20T00:03:49.589Z,10.90
2023-01-20T00:05:10.687Z,11.40
2023-01-20T00:05:49.540Z,10.90
2023-01-20T00:06:49.595Z,11.40
2023-01-20T00:07:49.509Z,11.40
2023-01-20T00:08:49.526Z,10.30
2023-01-20T00:09:49.470Z,10.70
2023-01-20T00:10:49.490Z,10.00
2023-01-20T00:11:49.505Z,10.30
2023-01-20T00:12:49.489Z,10.20
2023-01-20T00:13:49.454Z,10.40
2023-01-20T00:14:49.476Z,10.50
2023-01-20T00:15:49.426Z,10.50
2023-01-20T00:16:49.459Z,11.10
2023-01-20T00:17:49.373Z,10.80
2023-01-20T00:18:49.416Z,10.40
2023-01-20T00:19:49.343Z,10.10
2023-01-20T00:20:49.368Z,10.90
2023-01-20T00:21:49.330Z,10.50
2023-01-20T00:22:49.364Z,10.50
2023-01-20T00:23:49.329Z,10.60
2023-01-20T00:24:49.306Z,9.80
2023-01-20T00:25:49.268Z,10.40
2023-01-20T00:26:49.291Z,10.20
2023-01-20T00:27:49.234Z,10.30
2023-01-20T00:28:49.275Z,10.30
2023-01-20T00:29:49.222Z,10.20
2023-01-20T00:30:49.287Z,10.40
2023-01-20T00:31:49.191Z,10.50
2023-01-20T00:32:49.212Z,9.90
2023-01-20T00:33:49.203Z,10.10
2023-01-20T00:34:49.181Z,10.60
2023-01-20T00:35:49.155Z,10.40
2023-01-20T00:36:49.177Z,10.50
2023-01-20T00:37:49.142Z,9.80
2023-01-20T00:38:49.163Z,9.90
2023-01-20T00:39:49.093Z,10.60
2023-01-20T00:40:49.120Z,9.70
2023-01-20T00:41:49.097Z,9.50
2023-01-20T00:42:49.083Z,9.90
2023-01-20T00:43:49.056Z,9.70
2023-01-20T00:44:49.087Z,10.00
2023-01-20T00:45:49.036Z,10.40
2023-01-20T00:46:49.089Z,10.10
2023-01-20T00:47:48.988Z,9.30
2023-01-20T00:48:49.018Z,10.00
2023-01-20T00:49:49.007Z,9.40
2023-01-20T00:50:48.999Z,9.80
2023-01-20T00:51:49.005Z,9.70
2023-01-20T00:52:48.958Z,9.70
2023-01-20T00:53:48.954Z,10.40
2023-01-20T00:54:48.933Z,10.40
2023-01-20T00:55:48.899Z,9.50
2023-01-20T00:56:48.903Z,9.30
2023-01-20T00:57:48.896Z,9.50
2023-01-20T00:58:48.886Z,9.90
2023-01-20T00:59:48.843Z,9.30
2023-01-20T01:00:48.877Z,9.50
2023-01-20T01:01:49.055Z,9.30
2023-01-20T01:02:48.821Z,8.90
2023-01-20T01:03:48.799Z,8.90
2023-01-20T01:04:48.803Z,10.20
2023-01-20T01:05:48.777Z,9.40
2023-01-20T01:06:48.796Z,9.40
2023-01-20T01:07:48.735Z,8.90
2023-01-20T01:08:48.766Z,8.90
2023-01-20T01:09:48.707Z,9.20
2023-01-20T01:10:48.722Z,9.20
2023-01-20T01:11:48.714Z,9.60
2023-01-20T01:12:48.703Z,9.30
2023-01-20T01:13:48.668Z,9.40
2023-01-20T01:14:48.668Z,9.40
2023-01-20T01:15:48.644Z,8.90
2023-01-20T01:16:48.650Z,9.30
2023-01-20T01:17:48.624Z,9.40
2023-01-20T01:18:48.632Z,9.50
2023-01-20T01:19:48.576Z,9.60
2023-01-20T01:20:48.598Z,9.50
2023-01-20T01:21:48.558Z,9.20
2023-01-20T01:22:48.564Z,9.80
2023-01-20T01:23:48.547Z,9.30
2023-01-20T01:24:48.540Z,9.60
2023-01-20T01:25:48.536Z,9.40
2023-01-20T01:26:48.546Z,9.00
2023-01-20T01:27:48.489Z,9.40
2023-01-20T01:28:48.503Z,9.20
2023-01-20T01:29:48.457Z,9.00
2023-01-20T01:30:48.576Z,9.50
2023-01-20T01:31:48.488Z,9.80
2023-01-20T01:32:48.488Z,9.70
2023-01-20T01:33:48.418Z,9.80
2023-01-20T01:34:48.408Z,9.80
2023-01-20T01:35:48.370Z,9.00
2023-01-20T01:36:48.408Z,9.40
2023-01-20T01:37:48.352Z,9.40
2023-01-20T01:38:57.453Z,8.80
2023-01-20T01:39:48.329Z,9.10
2023-01-20T01:40:48.345Z,8.80
2023-01-20T01:41:48.336Z,9.20
2023-01-20T01:42:48.337Z,8.90
2023-01-20T01:43:48.297Z,9.80
2023-01-20T01:44:48.320Z,9.10
2023-01-20T01:45:48.284Z,9.10
2023-01-20T01:46:48.252Z,9.10
2023-01-20T01:47:48.243Z,9.20
2023-01-20T01:48:48.233Z,9.10
2023-01-20T01:49:48.211Z,9.50
2023-01-20T01:50:48.183Z,9.40
2023-01-20T01:51:48.242Z,9.30
2023-01-20T01:52:48.173Z,8.60
2023-01-20T01:53:48.277Z,9.80
2023-01-20T01:54:48.121Z,9.30
2023-01-20T01:55:48.161Z,9.40
2023-01-20T01:56:48.104Z,10.00
2023-01-20T01:57:48.116Z,9.60
2023-01-20T01:58:48.091Z,10.50
2023-01-20T01:59:48.095Z,9.70
2023-01-20T02:00:48.151Z,9.50
2023-01-20T02:01:48.177Z,10.90
2023-01-20T02:02:48.060Z,10.30
2023-01-20T02:03:48.045Z,9.60
2023-01-20T02:04:48.011Z,9.90
2023-01-20T02:05:48.040Z,9.70
2023-01-20T02:06:47.991Z,9.80
2023-01-20T02:07:47.997Z,10.30
2023-01-20T02:08:47.966Z,10.20
2023-01-20T02:09:48.006Z,10.80
2023-01-20T02:10:47.939Z,10.80
2023-01-20T02:11:47.939Z,10.80
2023-01-20T02:12:47.914Z,10.30
2023-01-20T02:13:47.921Z,11.00
2023-01-20T02:14:47.899Z,10.40
2023-01-20T02:15:47.875Z,11.00
2023-01-20T02:16:47.863Z,9.90
2023-01-20T02:17:47.867Z,10.10
2023-01-20T02:18:47.823Z,10.10
2023-01-20T02:19:47.841Z,10.20
2023-01-20T02:20:47.829Z,10.80
2023-01-20T02:21:47.805Z,11.00
2023-01-20T02:22:47.772Z,10.80
2023-01-20T02:23:47.811Z,10.60
2023-01-20T02:24:47.747Z,10.50
2023-01-20T02:25:47.779Z,10.30
2023-01-20T02:26:47.714Z,10.20
2023-01-20T02:27:47.744Z,9.70
2023-01-20T02:28:47.725Z,9.60
2023-01-20T02:29:47.721Z,10.10
2023-01-20T02:30:47.773Z,10.00
2023-01-20T02:31:47.716Z,9.40
2023-01-20T02:32:47.657Z,9.70
2023-01-20T02:33:47.684Z,9.60
2023-01-20T02:34:47.625Z,9.90
2023-01-20T02:35:47.633Z,9.80
2023-01-20T02:36:47.606Z,9.20
2023-01-20T02:37:47.618Z,9.10
2023-01-20T02:38:47.593Z,9.90
2023-01-20T02:39:47.592Z,10.40
2023-01-20T02:40:47.536Z,9.60
2023-01-20T02:41:47.553Z,9.90
2023-01-20T02:42:47.513Z,9.60
2023-01-20T02:43:47.583Z,9.10
2023-01-20T02:44:47.492Z,8.90
2023-01-20T02:45:47.543Z,8.90
2023-01-20T02:46:47.466Z,8.80
2023-01-20T02:47:47.477Z,8.60
2023-01-20T02:48:47.456Z,9.20
2023-01-20T02:49:47.459Z,8.30
2023-01-20T02:50:47.444Z,9.10
2023-01-20T02:51:47.423Z,8.70
2023-01-20T02:52:47.378Z,7.80
2023-01-20T02:53:47.395Z,8.30
2023-01-20T02:54:47.379Z,8.90
2023-01-20T02:55:47.374Z,8.80
2023-01-20T02:56:47.348Z,8.20
2023-01-20T02:57:47.361Z,8.70
2023-01-20T02:58:47.311Z,8.70
2023-01-20T02:59:47.359Z,8.30
2023-01-20T03:00:47.358Z,8.20
2023-01-20T03:01:47.656Z,8.40
2023-01-20T03:02:47.254Z,8.40
2023-01-20T03:03:47.321Z,8.10
2023-01-20T03:04:47.246Z,9.10
2023-01-20T03:05:47.280Z,9.40
2023-01-20T03:06:47.214Z,8.50
2023-01-20T03:07:47.220Z,8.20
2023-01-20T03:08:47.193Z,8.80
2023-01-20T03:09:47.223Z,8.60
2023-01-20T03:10:47.156Z,8.80
2023-01-20T03:11:47.192Z,8.30
2023-01-20T03:12:47.124Z,7.90
2023-01-20T03:13:47.140Z,8.20
2023-01-20T03:14:47.112Z,8.40
2023-01-20T03:15:47.108Z,8.20
2023-01-20T03:16:47.152Z,8.80
2023-01-20T03:17:47.083Z,8.10
2023-01-20T03:18:47.053Z,8.30
2023-01-20T03:19:47.064Z,8.50
2023-01-20T03:20:47.072Z,8.70
2023-01-20T03:21:47.035Z,7.70
2023-01-20T03:22:46.997Z,8.90
2023-01-20T03:23:47.015Z,8.30
2023-01-20T03:24:47.011Z,7.90
2023-01-20T03:25:46.986Z,7.80
2023-01-20T03:26:46.967Z,8.70
2023-01-20T03:27:46.962Z,8.40
2023-01-20T03:28:46.933Z,8.30
2023-01-20T03:29:46.941Z,9.00
2023-01-20T03:30:47.021Z,8.70
2023-01-20T03:31:47.045Z,8.50
2023-01-20T03:32:46.884Z,8.30
2023-01-20T03:33:46.887Z,7.80
2023-01-20T03:34:46.844Z,7.50
2023-01-20T03:35:46.884Z,7.70
2023-01-20T03:36:46.827Z,7.70
2023-01-20T03:37:46.858Z,7.30
2023-01-20T03:38:46.798Z,7.90
2023-01-20T03:39:46.827Z,7.40
2023-01-20T03:40:46.771Z,7.50
2023-01-20T03:41:46.781Z,7.40
2023-01-20T03:42:46.749Z,7.40
2023-01-20T03:43:46.784Z,7.40
2023-01-20T03:44:46.742Z,7.30
2023-01-20T03:45:46.764Z,8.00
2023-01-20T03:46:46.701Z,7.10
2023-01-20T03:47:46.696Z,7.10
2023-01-20T03:48:46.664Z,7.20
2023-01-20T03:49:46.718Z,6.80
2023-01-20T03:50:46.668Z,7.50
2023-01-20T03:51:46.660Z,6.90
2023-01-20T03:52:48.736Z,7.10
2023-01-20T03:53:46.633Z,7.40
2023-01-20T03:54:46.595Z,8.10
2023-01-20T03:55:46.630Z,7.60
2023-01-20T03:56:46.566Z,7.30
2023-01-20T03:57:46.582Z,7.60
2023-01-20T03:58:46.541Z,7.40
2023-01-20T03:59:46.556Z,7.60
2023-01-20T04:00:46.533Z,8.90
2023-01-20T04:01:46.620Z,8.70
2023-01-20T04:02:46.491Z,9.40
2023-01-20T04:03:46.603Z,9.20
2023-01-20T04:04:46.463Z,9.40
2023-01-20T04:05:46.498Z,9.10
2023-01-20T04:06:46.451Z,8.00
2023-01-20T04:07:46.444Z,7.20
2023-01-20T04:08:46.402Z,7.30
2023-01-20T04:09:46.421Z,7.10
2023-01-20T04:10:46.410Z,7.30
2023-01-20T04:11:46.409Z,7.00
2023-01-20T04:12:46.353Z,6.70
2023-01-20T04:13:46.384Z,6.20
2023-01-20T04:14:46.326Z,6.30
2023-01-20T04:15:46.385Z,6.40
2023-01-20T04:16:46.306Z,6.10
2023-01-20T04:17:46.323Z,5.70
2023-01-20T04:18:46.309Z,6.50
2023-01-20T04:19:46.310Z,5.80
2023-01-20T04:20:46.271Z,5.80
2023-01-20T04:21:46.287Z,6.40
2023-01-20T04:22:46.226Z,6.70
2023-01-20T04:23:46.239Z,6.10
2023-01-20T04:24:46.231Z,6.70
2023-01-20T04:25:46.225Z,8.00
2023-01-20T04:26:46.214Z,9.80
2023-01-20T04:27:46.198Z,7.50
2023-01-20T04:28:46.174Z,6.90
2023-01-20T04:29:46.161Z,7.10
2023-01-20T04:30:46.269Z,6.60
2023-01-20T04:31:46.154Z,7.00
2023-01-20T04:32:46.132Z,7.00
2023-01-20T04:33:46.172Z,6.80
2023-01-20T04:34:46.087Z,6.80
2023-01-20T04:35:46.094Z,6.70
2023-01-20T04:36:46.050Z,6.50
2023-01-20T04:37:46.085Z,7.20
2023-01-20T04:38:46.053Z,7.10
2023-01-20T04:39:46.048Z,8.10
2023-01-20T04:40:46.007Z,7.10
2023-01-20T04:41:46.008Z,7.50
2023-01-20T04:42:45.966Z,7.10
2023-01-20T04:43:45.985Z,6.70
2023-01-20T04:44:45.986Z,7.60
2023-01-20T04:45:45.963Z,7.80
2023-01-20T04:46:45.931Z,6.90
2023-01-20T04:47:45.959Z,6.10
2023-01-20T04:48:45.911Z,7.20
2023-01-20T04:49:45.954Z,7.40
2023-01-20T04:50:45.865Z,7.30
2023-01-20T04:51:45.893Z,6.40
2023-01-20T04:52:45.842Z,6.90
2023-01-20T04:53:45.851Z,6.50
2023-01-20T04:54:45.837Z,6.80
2023-01-20T04:55:45.825Z,7.00
2023-01-20T04:56:45.797Z,7.30
2023-01-20T04:57:45.815Z,6.20
2023-01-20T04:58:45.780Z,6.30
2023-01-20T04:59:45.796Z,6.50
2023-01-20T05:00:45.733Z,6.50
2023-01-20T05:01:45.998Z,6.50
2023-01-20T05:02:45.761Z,6.50
2023-01-20T05:03:45.723Z,6.60
2023-01-20T05:04:45.722Z,6.70
2023-01-20T05:05:45.698Z,6.10
2023-01-20T05:06:45.666Z,6.00
2023-01-20T05:07:45.690Z,6.30
2023-01-20T05:08:45.674Z,6.30
2023-01-20T05:09:45.646Z,6.70
2023-01-20T05:10:45.626Z,6.10
2023-01-20T05:11:45.647Z,6.40
2023-01-20T05:12:45.611Z,6.90
2023-01-20T05:13:45.609Z,6.60
2023-01-20T05:14:45.585Z,6.60
2023-01-20T05:15:45.617Z,6.20
2023-01-20T05:16:45.542Z,6.50
2023-01-20T05:17:45.580Z,6.00
2023-01-20T05:18:45.540Z,6.50
2023-01-20T05:19:45.536Z,6.30
2023-01-20T05:20:45.488Z,7.60
2023-01-20T05:21:45.510Z,15.30
2023-01-20T05:22:45.484Z,26.60
2023-01-20T05:23:45.483Z,18.10
2023-01-20T05:24:45.454Z,9.20
2023-01-20T05:25:45.460Z,7.10
2023-01-20T05:26:45.415Z,6.00
2023-01-20T05:27:45.453Z,6.40
2023-01-20T05:28:45.407Z,6.30
2023-01-20T05:29:45.403Z,7.10
2023-01-20T05:30:45.531Z,6.30
2023-01-20T05:31:45.404Z,6.30
2023-01-20T05:32:45.375Z,6.00
2023-01-20T05:33:45.406Z,6.30
2023-01-20T05:34:45.315Z,6.70
2023-01-20T05:35:45.345Z,6.40
2023-01-20T05:36:45.291Z,6.70
2023-01-20T05:37:45.321Z,6.60
2023-01-20T05:38:45.252Z,6.20
2023-01-20T05:39:45.292Z,6.60
2023-01-20T05:40:45.230Z,6.80
2023-01-20T05:41:45.241Z,7.50
2023-01-20T05:42:45.244Z,8.70
2023-01-20T05:43:45.227Z,9.10
2023-01-20T05:44:45.184Z,8.30
2023-01-20T05:45:45.199Z,9.00
2023-01-20T05:46:45.295Z,10.50
2023-01-20T05:47:45.172Z,13.90
2023-01-20T05:48:45.134Z,15.50
2023-01-20T05:49:45.148Z,12.70
2023-01-20T05:50:45.105Z,12.30
2023-01-20T05:51:45.156Z,10.40
2023-01-20T05:52:45.097Z,8.40
2023-01-20T05:53:45.134Z,8.30
2023-01-20T05:54:45.052Z,8.60
2023-01-20T05:55:45.071Z,6.80
2023-01-20T05:56:45.058Z,7.50
2023-01-20T05:57:45.048Z,6.10
2023-01-20T05:58:45.010Z,6.30
2023-01-20T05:59:45.017Z,6.30
2023-01-20T06:00:45.017Z,6.80
2023-01-20T06:01:44.986Z,6.90
2023-01-20T06:02:45.026Z,6.60
2023-01-20T06:03:45.019Z,12.70
2023-01-20T06:04:44.938Z,15.10
2023-01-20T06:05:44.964Z,11.70
2023-01-20T06:06:44.923Z,13.20
2023-01-20T06:07:44.887Z,12.00
2023-01-20T06:08:44.918Z,8.70
2023-01-20T06:09:44.872Z,7.80
2023-01-20T06:10:44.883Z,8.50
2023-01-20T06:11:44.856Z,8.80
2023-01-20T06:12:44.859Z,7.40
2023-01-20T06:13:44.846Z,9.10
2023-01-20T06:14:44.812Z,11.00
2023-01-20T06:15:44.804Z,8.90
2023-01-20T06:16:44.819Z,16.20
2023-01-20T06:17:44.777Z,11.80
2023-01-20T06:18:44.834Z,13.60
2023-01-20T06:19:44.756Z,12.60
2023-01-20T06:20:44.770Z,17.80
2023-01-20T06:21:46.835Z,19.80
2023-01-20T06:22:44.761Z,7.80
2023-01-20T06:23:44.700Z,6.20
2023-01-20T06:24:44.698Z,6.30
2023-01-20T06:25:44.708Z,5.60
2023-01-20T06:26:44.675Z,6.10
2023-01-20T06:27:44.634Z,5.80
2023-01-20T06:28:44.647Z,6.40
2023-01-20T06:29:44.656Z,6.70
2023-01-20T06:30:44.662Z,9.10
2023-01-20T06:31:44.679Z,6.80
2023-01-20T06:32:44.643Z,7.00
2023-01-20T06:33:44.570Z,8.30
2023-01-20T06:34:44.592Z,9.80
2023-01-20T06:35:44.548Z,9.70
2023-01-20T06:36:44.574Z,11.30
2023-01-20T06:37:44.506Z,9.10
2023-01-20T06:38:44.521Z,8.60
2023-01-20T06:39:44.491Z,8.90
2023-01-20T06:40:44.489Z,9.50
2023-01-20T06:41:44.481Z,10.70
2023-01-20T06:42:44.485Z,10.10
2023-01-20T06:43:44.451Z,8.40
2023-01-20T06:44:44.459Z,7.80
2023-01-20T06:45:44.417Z,6.30
2023-01-20T06:46:46.724Z,6.60
2023-01-20T06:47:44.383Z,6.40
2023-01-20T06:48:44.394Z,6.40
2023-01-20T06:49:44.370Z,6.50
2023-01-20T06:50:44.369Z,7.00
2023-01-20T06:51:44.356Z,6.70
2023-01-20T06:52:44.397Z,6.20
2023-01-20T06:53:44.336Z,6.50
2023-01-20T06:54:44.335Z,6.70
2023-01-20T06:55:44.287Z,6.40
2023-01-20T06:56:44.307Z,7.10
2023-01-20T06:57:44.289Z,6.40
2023-01-20T06:58:44.294Z,7.50
2023-01-20T06:59:44.237Z,6.40
2023-01-20T07:00:44.296Z,6.90
2023-01-20T07:01:44.322Z,6.40
2023-01-20T07:02:44.404Z,7.40
2023-01-20T07:03:44.171Z,6.80
2023-01-20T07:04:44.217Z,7.30
2023-01-20T07:05:44.161Z,7.10
2023-01-20T07:06:44.168Z,6.80
2023-01-20T07:07:44.162Z,7.10
2023-01-20T07:08:44.160Z,7.30
2023-01-20T07:09:44.146Z,8.30
2023-01-20T07:10:44.105Z,6.60
2023-01-20T07:11:44.078Z,7.00
2023-01-20T07:12:44.152Z,6.40
2023-01-20T07:13:44.061Z,6.70
2023-01-20T07:14:44.064Z,7.30
2023-01-20T07:15:44.063Z,7.00
2023-01-20T07:16:44.096Z,7.20
2023-01-20T07:17:44.009Z,6.80
2023-01-20T07:18:44.017Z,7.20
2023-01-20T07:19:43.988Z,6.60
2023-01-20T07:20:44.014Z,7.10
2023-01-20T07:21:43.953Z,9.30
2023-01-20T07:22:43.967Z,18.80
2023-01-20T07:23:43.928Z,21.50
2023-01-20T07:24:43.952Z,7.60
2023-01-20T07:25:43.939Z,8.00
2023-01-20T07:26:43.932Z,7.40
2023-01-20T07:27:43.884Z,8.80
2023-01-20T07:28:43.885Z,7.30
2023-01-20T07:29:43.858Z,6.30
2023-01-20T07:30:43.930Z,6.80
2023-01-20T07:31:43.870Z,6.00
2023-01-20T07:32:43.829Z,9.40
2023-01-20T07:33:43.805Z,7.60
2023-01-20T07:34:43.842Z,6.20
2023-01-20T07:35:43.791Z,7.40
2023-01-20T07:36:43.790Z,6.40
2023-01-20T07:37:43.731Z,6.30
2023-01-20T07:38:43.773Z,6.00
2023-01-20T07:39:43.741Z,7.20
2023-01-20T07:40:43.746Z,7.50
2023-01-20T07:41:43.695Z,7.60
2023-01-20T07:42:43.733Z,6.00
2023-01-20T07:43:43.676Z,6.10
2023-01-20T07:44:43.692Z,6.10
2023-01-20T07:45:43.688Z,6.30
2023-01-20T07:46:43.664Z,5.90
2023-01-20T07:47:43.635Z,5.70
2023-01-20T07:48:43.697Z,6.60
2023-01-20T07:49:43.618Z,6.80
2023-01-20T07:50:43.623Z,5.90
2023-01-20T07:51:43.568Z,7.40
2023-01-20T07:52:43.583Z,6.50
2023-01-20T07:53:43.567Z,6.90
2023-01-20T07:54:43.544Z,6.60
2023-01-20T07:55:43.516Z,6.40
2023-01-20T07:56:43.544Z,6.70
2023-01-20T07:57:43.478Z,6.40
2023-01-20T07:58:43.542Z,6.70
2023-01-20T07:59:43.473Z,7.40
2023-01-20T08:00:43.519Z,6.80
2023-01-20T08:01:43.550Z,6.70
2023-01-20T08:02:43.432Z,7.20
2023-01-20T08:03:43.483Z,6.90
2023-01-20T08:04:43.435Z,6.30
2023-01-20T08:05:43.443Z,6.50
2023-01-20T08:06:43.390Z,6.50
2023-01-20T08:07:43.350Z,6.90
2023-01-20T08:08:43.403Z,6.80
2023-01-20T08:09:43.327Z,6.90
2023-01-20T08:10:43.938Z,8.30
2023-01-20T08:11:43.299Z,7.60
2023-01-20T08:12:43.336Z,8.40
2023-01-20T08:13:43.328Z,7.80
2023-01-20T08:14:43.327Z,8.00
2023-01-20T08:15:43.301Z,7.60
2023-01-20T08:16:43.350Z,7.70
2023-01-20T08:17:43.227Z,7.30
2023-01-20T08:18:43.275Z,7.10
2023-01-20T08:19:43.208Z,7.90
2023-01-20T08:20:43.229Z,7.90
2023-01-20T08:21:43.179Z,8.10
2023-01-20T08:22:43.203Z,7.90
2023-01-20T08:23:43.145Z,7.20
2023-01-20T08:24:43.200Z,7.80
2023-01-20T08:25:43.146Z,7.60
2023-01-20T08:26:43.152Z,7.60
2023-01-20T08:27:43.094Z,7.50
2023-01-20T08:28:43.121Z,7.90
2023-01-20T08:29:43.089Z,8.20
2023-01-20T08:30:43.203Z,7.90
2023-01-20T08:31:43.191Z,8.70
2023-01-20T08:32:43.124Z,8.70
2023-01-20T08:33:43.021Z,9.00
2023-01-20T08:34:43.073Z,9.50
2023-01-20T08:35:43.039Z,9.00
2023-01-20T08:36:43.053Z,9.10
2023-01-20T08:37:42.970Z,9.60
2023-01-20T08:38:42.962Z,9.30
2023-01-20T08:39:42.991Z,9.70
2023-01-20T08:40:42.974Z,9.90
2023-01-20T08:41:42.993Z,9.80
2023-01-20T08:42:42.928Z,9.60
2023-01-20T08:43:42.932Z,10.10
2023-01-20T08:44:42.895Z,9.90
2023-01-20T08:45:42.920Z,9.50
2023-01-20T08:46:42.858Z,9.90
2023-01-20T08:47:42.902Z,9.90
2023-01-20T08:48:42.830Z,14.20
2023-01-20T08:49:42.841Z,15.40
2023-01-20T08:50:42.852Z,12.20
2023-01-20T08:51:42.883Z,10.60
2023-01-20T08:52:42.782Z,11.70
2023-01-20T08:53:42.808Z,10.40
2023-01-20T08:54:42.766Z,11.10
2023-01-20T08:55:42.789Z,10.70
2023-01-20T08:56:42.725Z,11.80
2023-01-20T08:57:42.751Z,10.80
2023-01-20T08:58:42.706Z,10.20
2023-01-20T08:59:42.760Z,10.90
2023-01-20T09:00:42.686Z,10.70
2023-01-20T09:01:42.738Z,10.50
2023-01-20T09:02:42.799Z,11.70
2023-01-20T09:03:49.417Z,10.70
2023-01-20T09:04:42.632Z,11.30
2023-01-20T09:05:42.630Z,11.60
2023-01-20T09:06:42.598Z,11.70
2023-01-20T09:07:42.644Z,11.90
2023-01-20T09:08:42.583Z,10.80
2023-01-20T09:09:42.598Z,11.90
2023-01-20T09:10:42.552Z,12.00
2023-01-20T09:11:42.651Z,11.80
2023-01-20T09:12:42.550Z,11.80
2023-01-20T09:13:42.532Z,11.20
2023-01-20T09:14:42.534Z,11.20
2023-01-20T09:15:42.604Z,11.00
2023-01-20T09:16:42.513Z,11.70
2023-01-20T09:17:42.496Z,11.70
2023-01-20T09:18:42.444Z,11.00
2023-01-20T09:19:42.493Z,12.60
2023-01-20T09:20:42.425Z,10.90
2023-01-20T09:21:42.454Z,11.90
2023-01-20T09:22:42.378Z,12.50
2023-01-20T09:23:42.412Z,11.60
2023-01-20T09:24:42.375Z,10.30
2023-01-20T09:25:42.363Z,10.80
2023-01-20T09:26:42.377Z,11.10
2023-01-20T09:27:42.370Z,10.00
2023-01-20T09:28:42.321Z,10.60
2023-01-20T09:29:42.346Z,11.10
2023-01-20T09:30:42.355Z,10.10
2023-01-20T09:31:42.366Z,10.60
2023-01-20T09:32:42.256Z,10.40
2023-01-20T09:33:42.261Z,9.60
2023-01-20T09:34:42.243Z,10.30
2023-01-20T09:35:42.269Z,10.20
2023-01-20T09:36:42.209Z,10.50
2023-01-20T09:37:42.270Z,9.00
2023-01-20T09:38:42.175Z,9.50
2023-01-20T09:39:42.204Z,9.00
2023-01-20T09:40:42.184Z,8.90
2023-01-20T09:41:42.329Z,8.60
2023-01-20T09:42:42.168Z,9.30
2023-01-20T09:43:42.147Z,9.70
2023-01-20T09:44:42.107Z,9.50
2023-01-20T09:45:42.126Z,11.00
2023-01-20T09:46:42.099Z,9.80
2023-01-20T09:47:42.100Z,9.20
2023-01-20T09:48:42.095Z,9.70
2023-01-20T09:49:42.096Z,12.10
2023-01-20T09:50:42.049Z,9.10
2023-01-20T09:51:42.049Z,9.20
2023-01-20T09:52:42.036Z,10.00
2023-01-20T09:53:42.046Z,9.80
2023-01-20T09:54:41.991Z,9.90
2023-01-20T09:55:42.006Z,9.70
2023-01-20T09:56:41.966Z,8.90
2023-01-20T09:57:41.957Z,9.90
2023-01-20T09:58:41.960Z,8.90
2023-01-20T09:59:41.965Z,9.90
2023-01-20T10:00:41.890Z,9.30
2023-01-20T10:01:41.984Z,10.00
2023-01-20T10:02:41.889Z,11.00
2023-01-20T10:03:41.913Z,11.00
2023-01-20T10:04:41.841Z,9.90
2023-01-20T10:05:41.981Z,12.60
2023-01-20T10:06:41.835Z,11.80
2023-01-20T10:07:41.853Z,11.00
2023-01-20T10:08:45.902Z,10.70
2023-01-20T10:09:41.869Z,11.30
2023-01-20T10:10:41.856Z,10.60
2023-01-20T10:11:41.886Z,10.80
2023-01-20T10:12:41.739Z,10.20
2023-01-20T10:13:41.810Z,10.80
2023-01-20T10:14:41.762Z,10.40
2023-01-20T10:15:41.835Z,10.40
2023-01-20T10:16:41.700Z,10.50
2023-01-20T10:17:41.695Z,10.30
2023-01-20T10:18:41.666Z,10.70
2023-01-20T10:19:42.354Z,11.20
2023-01-20T10:20:41.676Z,11.40
2023-01-20T10:21:41.620Z,11.00
2023-01-20T10:22:41.635Z,11.50
2023-01-20T10:23:41.632Z,10.80
2023-01-20T10:24:41.610Z,11.90
2023-01-20T10:25:41.587Z,11.70
2023-01-20T10:26:41.629Z,12.40
2023-01-20T10:27:41.577Z,11.80
2023-01-20T10:28:41.575Z,11.60
2023-01-20T10:29:41.526Z,11.80
2023-01-20T10:30:41.586Z,12.10
2023-01-20T10:31:41.602Z,11.80
2023-01-20T10:32:41.489Z,12.40
2023-01-20T10:33:41.467Z,12.30
2023-01-20T10:34:41.490Z,12.50
2023-01-20T10:35:41.467Z,12.60
2023-01-20T10:36:41.466Z,13.10
2023-01-20T10:37:41.459Z,12.50
2023-01-20T10:38:41.426Z,13.10
2023-01-20T10:39:41.385Z,12.30
2023-01-20T10:40:41.456Z,12.20
2023-01-20T10:41:41.436Z,12.50
2023-01-20T10:42:41.370Z,13.00
2023-01-20T10:43:41.363Z,11.70
2023-01-20T10:44:41.344Z,12.30
2023-01-20T10:45:41.300Z,13.50
2023-01-20T10:46:41.338Z,12.40
2023-01-20T10:47:41.323Z,12.60
2023-01-20T10:48:41.302Z,12.40
2023-01-20T10:49:41.249Z,12.80
2023-01-20T10:50:41.279Z,13.00
2023-01-20T10:51:41.223Z,12.90
2023-01-20T10:52:41.270Z,12.50
2023-01-20T10:53:41.210Z,12.50
2023-01-20T10:54:41.242Z,13.20
2023-01-20T10:55:41.174Z,13.40
2023-01-20T10:56:41.205Z,12.60
2023-01-20T10:57:41.192Z,13.40
2023-01-20T10:58:41.178Z,14.10
2023-01-20T10:59:41.125Z,13.10
2023-01-20T11:00:41.129Z,13.50
2023-01-20T11:01:41.109Z,13.20
2023-01-20T11:02:41.140Z,13.80
2023-01-20T11:03:41.131Z,12.70
2023-01-20T11:04:41.085Z,12.90
2023-01-20T11:05:41.057Z,12.80
2023-01-20T11:06:41.072Z,12.80
2023-01-20T11:07:41.015Z,12.90
2023-01-20T11:08:42.562Z,12.60
2023-01-20T11:09:41.047Z,12.80
2023-01-20T11:10:41.009Z,12.80
2023-01-20T11:11:40.968Z,12.70
2023-01-20T11:12:40.992Z,13.10
2023-01-20T11:13:40.941Z,9.80
2023-01-20T11:14:40.971Z,13.30
2023-01-20T11:15:40.948Z,13.10
2023-01-20T11:16:40.950Z,12.20
2023-01-20T11:17:40.886Z,12.80
2023-01-20T11:18:40.899Z,12.90
2023-01-20T11:19:40.877Z,12.50
2023-01-20T11:20:40.890Z,12.60
2023-01-20T11:21:40.863Z,12.00
2023-01-20T11:22:40.837Z,12.50
2023-01-20T11:23:40.803Z,12.90
2023-01-20T11:24:40.828Z,12.70
2023-01-20T11:25:40.795Z,13.00
2023-01-20T11:26:40.789Z,12.90
2023-01-20T11:27:40.761Z,12.70
2023-01-20T11:28:40.763Z,12.70
2023-01-20T11:29:40.716Z,12.70
2023-01-20T11:30:40.771Z,12.20
2023-01-20T11:31:40.913Z,12.80
2023-01-20T11:32:40.696Z,13.20
2023-01-20T11:33:40.682Z,13.20
2023-01-20T11:34:40.677Z,13.60
2023-01-20T11:35:40.680Z,13.70
2023-01-20T11:36:40.663Z,13.10
2023-01-20T11:37:40.642Z,13.00
2023-01-20T11:38:40.658Z,13.30
2023-01-20T11:39:40.706Z,12.40
2023-01-20T11:40:40.637Z,13.10
2023-01-20T11:41:40.581Z,13.50
2023-01-20T11:42:40.583Z,13.00
2023-01-20T11:43:40.584Z,13.90
2023-01-20T11:44:40.557Z,12.70
2023-01-20T11:45:40.514Z,11.90
2023-01-20T11:46:40.566Z,12.40
2023-01-20T11:47:40.518Z,11.90
2023-01-20T11:48:40.551Z,11.60
2023-01-20T11:49:40.477Z,11.50
2023-01-20T11:50:40.539Z,12.10
2023-01-20T11:51:40.484Z,10.70
2023-01-20T11:52:40.450Z,11.30
2023-01-20T11:53:40.425Z,11.40
2023-01-20T11:54:40.419Z,11.00
2023-01-20T11:55:40.385Z,10.70
2023-01-20T11:56:40.426Z,8.10
2023-01-20T11:57:40.365Z,11.40
2023-01-20T11:58:40.403Z,11.00
2023-01-20T11:59:40.330Z,11.40
2023-01-20T12:00:40.348Z,10.20
2023-01-20T12:01:40.314Z,11.30
2023-01-20T12:02:40.321Z,11.70
2023-01-20T12:03:40.319Z,11.20
2023-01-20T12:04:40.311Z,11.80
2023-01-20T12:05:40.266Z,12.10
2023-01-20T12:06:40.268Z,10.40
2023-01-20T12:07:40.235Z,10.90
2023-01-20T12:08:40.806Z,11.30
2023-01-20T12:09:40.233Z,12.10
2023-01-20T12:10:40.216Z,11.90
2023-01-20T12:11:40.188Z,11.70
2023-01-20T12:12:40.199Z,12.70
2023-01-20T12:13:40.167Z,12.10
2023-01-20T12:14:40.203Z,11.70
2023-01-20T12:15:40.159Z,9.50
2023-01-20T12:16:40.297Z,12.40
2023-01-20T12:17:40.106Z,12.00
2023-01-20T12:18:45.407Z,12.40
2023-01-20T12:19:40.075Z,10.60
2023-01-20T12:20:54.132Z,11.90
2023-01-20T12:21:40.079Z,12.80
2023-01-20T12:22:40.091Z,12.80
2023-01-20T12:23:40.016Z,14.20
2023-01-20T12:24:43.128Z,12.80
2023-01-20T12:25:40.024Z,13.90
2023-01-20T12:26:40.024Z,13.20
2023-01-20T12:27:39.993Z,10.90
2023-01-20T12:28:40.005Z,11.10
2023-01-20T12:29:39.957Z,12.00
2023-01-20T12:30:39.988Z,11.70
2023-01-20T12:31:39.967Z,11.60
2023-01-20T12:32:39.935Z,12.10
2023-01-20T12:33:39.931Z,11.10
2023-01-20T12:34:39.903Z,11.00
2023-01-20T12:35:39.852Z,10.80
2023-01-20T12:36:39.905Z,11.20
2023-01-20T12:37:39.840Z,10.90
2023-01-20T12:38:39.927Z,10.60
2023-01-20T12:39:39.823Z,10.30
2023-01-20T12:40:39.804Z,10.30
2023-01-20T12:41:39.821Z,10.20
2023-01-20T12:42:39.805Z,10.50
2023-01-20T12:43:39.764Z,10.30
2023-01-20T12:44:39.798Z,9.70
2023-01-20T12:45:39.787Z,9.70
2023-01-20T12:46:39.740Z,9.80
2023-01-20T12:47:39.695Z,10.40
2023-01-20T12:48:39.749Z,11.50
2023-01-20T12:49:39.696Z,10.90
2023-01-20T12:50:39.680Z,10.10
2023-01-20T12:51:39.682Z,9.50
2023-01-20T12:52:39.832Z,8.90
2023-01-20T12:53:39.745Z,9.90
2023-01-20T12:54:48.218Z,7.90
2023-01-20T12:55:39.613Z,7.70
2023-01-20T12:56:39.681Z,7.70
2023-01-20T12:57:39.583Z,8.50
2023-01-20T12:58:39.598Z,8.50
2023-01-20T12:59:39.551Z,9.70
2023-01-20T13:00:39.581Z,9.40
2023-01-20T13:01:39.530Z,9.70
2023-01-20T13:02:39.551Z,9.30
2023-01-20T13:03:39.585Z,12.30
2023-01-20T13:04:39.535Z,14.20
2023-01-20T13:05:39.494Z,9.90
2023-01-20T13:06:39.483Z,9.00
2023-01-20T13:07:39.445Z,8.10
2023-01-20T13:08:39.488Z,10.00